sensor_id;sensor_type;location;lat;lon;timestamp;temperature;humidity
75190;HTU21D;69198;44.694;37.790;2024-01-07T00:00:53;11.97;82.13
75190;HTU21D;69198;44.694;37.790;2024-01-07T00:01:54;11.96;82.13
75190;HTU21D;69198;44.694;37.790;2024-01-07T00:02:55;11.98;82.19
75190;HTU21D;69198;44.694;37.790;2024-01-07T00:03:56;11.98;82.17
75190;HTU21D;69198;44.694;37.790;2024-01-07T00:04:57;11.98;82.16
75190;HTU21D;69198;44.694;37.790;2024-01-07T00:05:58;11.98;82.15
75190;HTU21D;69198;44.694;37.790;2024-01-07T00:06:59;11.97;82.12
75190;HTU21D;69198;44.694;37.790;2024-01-07T00:08:00;12.00;82.10
75190;HTU21D;69198;44.694;37.790;2024-01-07T00:09:02;12.00;82.13
75190;HTU21D;69198;44.694;37.790;2024-01-07T00:10:03;12.00;82.16
75190;HTU21D;69198;44.694;37.790;2024-01-07T00:11:04;11.99;82.16
75190;HTU21D;69198;44.694;37.790;2024-01-07T00:12:05;12.00;82.23
75190;HTU21D;69198;44.694;37.790;2024-01-07T00:13:07;12.00;82.26
75190;HTU21D;69198;44.694;37.790;2024-01-07T00:14:08;12.00;82.29
75190;HTU21D;69198;44.694;37.790;2024-01-07T00:15:09;11.98;82.30
75190;HTU21D;69198;44.694;37.790;2024-01-07T00:16:10;11.97;82.33
75190;HTU21D;69198;44.694;37.790;2024-01-07T00:17:12;11.96;82.39
75190;HTU21D;69198;44.694;37.790;2024-01-07T00:18:13;11.92;82.49
75190;HTU21D;69198;44.694;37.790;2024-01-07T00:19:14;11.93;82.59
75190;HTU21D;69198;44.694;37.790;2024-01-07T00:20:15;11.93;82.65
75190;HTU21D;69198;44.694;37.790;2024-01-07T00:21:17;11.91;82.68
75190;HTU21D;69198;44.694;37.790;2024-01-07T00:22:18;11.90;82.73
75190;HTU21D;69198;44.694;37.790;2024-01-07T00:23:19;11.91;82.79
75190;HTU21D;69198;44.694;37.790;2024-01-07T00:24:21;11.89;82.82
75190;HTU21D;69198;44.694;37.790;2024-01-07T00:25:23;11.88;82.88
75190;HTU21D;69198;44.694;37.790;2024-01-07T00:26:24;11.87;82.89
75190;HTU21D;69198;44.694;37.790;2024-01-07T00:27:25;11.87;82.87
75190;HTU21D;69198;44.694;37.790;2024-01-07T00:28:26;11.86;82.89
75190;HTU21D;69198;44.694;37.790;2024-01-07T00:29:28;11.85;82.94
75190;HTU21D;69198;44.694;37.790;2024-01-07T00:30:29;11.86;83.00
75190;HTU21D;69198;44.694;37.790;2024-01-07T00:31:30;11.86;83.07
75190;HTU21D;69198;44.694;37.790;2024-01-07T00:32:31;11.86;83.08
75190;HTU21D;69198;44.694;37.790;2024-01-07T00:33:32;11.87;83.10
75190;HTU21D;69198;44.694;37.790;2024-01-07T00:34:33;11.88;83.13
75190;HTU21D;69198;44.694;37.790;2024-01-07T00:35:34;11.91;83.09
75190;HTU21D;69198;44.694;37.790;2024-01-07T00:36:35;11.91;83.05
75190;HTU21D;69198;44.694;37.790;2024-01-07T00:37:36;11.93;83.00
75190;HTU21D;69198;44.694;37.790;2024-01-07T00:38:38;11.91;83.03
75190;HTU21D;69198;44.694;37.790;2024-01-07T00:39:39;11.92;83.01
75190;HTU21D;69198;44.694;37.790;2024-01-07T00:40:43;11.93;82.96
75190;HTU21D;69198;44.694;37.790;2024-01-07T00:41:44;11.93;82.93
75190;HTU21D;69198;44.694;37.790;2024-01-07T00:42:45;11.92;82.91
75190;HTU21D;69198;44.694;37.790;2024-01-07T00:43:46;11.94;82.89
75190;HTU21D;69198;44.694;37.790;2024-01-07T00:44:47;11.97;82.84
75190;HTU21D;69198;44.694;37.790;2024-01-07T00:45:48;11.94;82.78
75190;HTU21D;69198;44.694;37.790;2024-01-07T00:46:49;11.94;82.75
75190;HTU21D;69198;44.694;37.790;2024-01-07T00:47:50;11.96;82.78
75190;HTU21D;69198;44.694;37.790;2024-01-07T00:48:52;11.96;82.79
75190;HTU21D;69198;44.694;37.790;2024-01-07T00:49:54;11.96;82.79
75190;HTU21D;69198;44.694;37.790;2024-01-07T00:50:55;11.96;82.72
75190;HTU21D;69198;44.694;37.790;2024-01-07T00:51:56;11.96;82.61
75190;HTU21D;69198;44.694;37.790;2024-01-07T00:52:57;11.94;82.61
75190;HTU21D;69198;44.694;37.790;2024-01-07T00:53:58;11.92;82.60
75190;HTU21D;69198;44.694;37.790;2024-01-07T00:54:59;11.90;82.67
75190;HTU21D;69198;44.694;37.790;2024-01-07T00:56:01;11.92;82.62
75190;HTU21D;69198;44.694;37.790;2024-01-07T00:57:02;11.93;82.55
75190;HTU21D;69198;44.694;37.790;2024-01-07T00:58:03;11.96;82.43
75190;HTU21D;69198;44.694;37.790;2024-01-07T00:59:04;11.96;82.34
75190;HTU21D;69198;44.694;37.790;2024-01-07T01:00:06;11.98;82.26
75190;HTU21D;69198;44.694;37.790;2024-01-07T01:01:07;11.97;82.29
75190;HTU21D;69198;44.694;37.790;2024-01-07T01:02:08;11.96;82.25
75190;HTU21D;69198;44.694;37.790;2024-01-07T01:03:09;11.96;82.26
75190;HTU21D;69198;44.694;37.790;2024-01-07T01:04:10;11.96;82.19
75190;HTU21D;69198;44.694;37.790;2024-01-07T01:05:11;11.93;82.18
75190;HTU21D;69198;44.694;37.790;2024-01-07T01:06:13;11.93;82.21
75190;HTU21D;69198;44.694;37.790;2024-01-07T01:07:14;11.93;82.26
75190;HTU21D;69198;44.694;37.790;2024-01-07T01:08:16;11.93;82.26
75190;HTU21D;69198;44.694;37.790;2024-01-07T01:09:17;11.92;82.29
75190;HTU21D;69198;44.694;37.790;2024-01-07T01:10:18;11.92;82.35
75190;HTU21D;69198;44.694;37.790;2024-01-07T01:11:19;11.93;82.39
75190;HTU21D;69198;44.694;37.790;2024-01-07T01:12:20;11.93;82.36
75190;HTU21D;69198;44.694;37.790;2024-01-07T01:13:22;11.93;82.30
75190;HTU21D;69198;44.694;37.790;2024-01-07T01:14:23;11.93;82.32
75190;HTU21D;69198;44.694;37.790;2024-01-07T01:15:24;11.96;82.19
75190;HTU21D;69198;44.694;37.790;2024-01-07T01:16:25;11.96;82.18
75190;HTU21D;69198;44.694;37.790;2024-01-07T01:17:26;11.97;82.09
75190;HTU21D;69198;44.694;37.790;2024-01-07T01:18:27;11.99;81.89
75190;HTU21D;69198;44.694;37.790;2024-01-07T01:19:28;12.02;81.79
75190;HTU21D;69198;44.694;37.790;2024-01-07T01:20:29;12.00;81.90
75190;HTU21D;69198;44.694;37.790;2024-01-07T01:21:30;12.00;81.92
75190;HTU21D;69198;44.694;37.790;2024-01-07T01:22:31;12.00;81.95
75190;HTU21D;69198;44.694;37.790;2024-01-07T01:23:32;11.99;82.04
75190;HTU21D;69198;44.694;37.790;2024-01-07T01:24:33;11.99;82.09
75190;HTU21D;69198;44.694;37.790;2024-01-07T01:25:34;11.99;82.20
75190;HTU21D;69198;44.694;37.790;2024-01-07T01:26:36;11.99;82.34
75190;HTU21D;69198;44.694;37.790;2024-01-07T01:27:40;11.97;82.41
75190;HTU21D;69198;44.694;37.790;2024-01-07T01:28:41;11.99;82.41
75190;HTU21D;69198;44.694;37.790;2024-01-07T01:29:42;11.98;82.48
75190;HTU21D;69198;44.694;37.790;2024-01-07T01:30:43;11.96;82.45
75190;HTU21D;69198;44.694;37.790;2024-01-07T01:31:44;11.97;82.40
75190;HTU21D;69198;44.694;37.790;2024-01-07T01:32:45;11.96;82.42
75190;HTU21D;69198;44.694;37.790;2024-01-07T01:33:46;11.96;82.40
75190;HTU21D;69198;44.694;37.790;2024-01-07T01:34:47;11.94;82.39
75190;HTU21D;69198;44.694;37.790;2024-01-07T01:35:48;11.93;82.34
75190;HTU21D;69198;44.694;37.790;2024-01-07T01:36:49;11.92;82.30
75190;HTU21D;69198;44.694;37.790;2024-01-07T01:37:50;11.92;82.29
75190;HTU21D;69198;44.694;37.790;2024-01-07T01:38:52;11.91;82.33
75190;HTU21D;69198;44.694;37.790;2024-01-07T01:39:53;11.93;82.42
75190;HTU21D;69198;44.694;37.790;2024-01-07T01:40:54;11.94;82.40
75190;HTU21D;69198;44.694;37.790;2024-01-07T01:41:55;11.94;82.43
75190;HTU21D;69198;44.694;37.790;2024-01-07T01:42:57;11.96;82.29
75190;HTU21D;69198;44.694;37.790;2024-01-07T01:43:59;11.97;82.11
75190;HTU21D;69198;44.694;37.790;2024-01-07T01:45:00;11.98;81.91
75190;HTU21D;69198;44.694;37.790;2024-01-07T01:46:03;11.97;81.89
75190;HTU21D;69198;44.694;37.790;2024-01-07T01:47:06;11.99;81.86
75190;HTU21D;69198;44.694;37.790;2024-01-07T01:48:07;11.98;81.81
75190;HTU21D;69198;44.694;37.790;2024-01-07T01:49:09;11.98;81.89
75190;HTU21D;69198;44.694;37.790;2024-01-07T01:50:11;11.97;81.93
75190;HTU21D;69198;44.694;37.790;2024-01-07T01:51:12;11.94;81.97
75190;HTU21D;69198;44.694;37.790;2024-01-07T01:52:13;11.93;81.87
75190;HTU21D;69198;44.694;37.790;2024-01-07T01:53:15;11.93;81.86
75190;HTU21D;69198;44.694;37.790;2024-01-07T01:54:16;11.96;81.72
75190;HTU21D;69198;44.694;37.790;2024-01-07T01:55:18;11.96;81.61
75190;HTU21D;69198;44.694;37.790;2024-01-07T01:56:20;11.93;81.65
75190;HTU21D;69198;44.694;37.790;2024-01-07T01:57:22;11.91;81.70
75190;HTU21D;69198;44.694;37.790;2024-01-07T01:58:25;11.91;81.72
75190;HTU21D;69198;44.694;37.790;2024-01-07T01:59:28;11.92;81.67
75190;HTU21D;69198;44.694;37.790;2024-01-07T02:00:32;11.91;81.65
75190;HTU21D;69198;44.694;37.790;2024-01-07T02:01:33;11.89;81.60
75190;HTU21D;69198;44.694;37.790;2024-01-07T02:02:34;11.90;81.53
75190;HTU21D;69198;44.694;37.790;2024-01-07T02:03:35;11.91;81.50
75190;HTU21D;69198;44.694;37.790;2024-01-07T02:04:36;11.90;81.65
75190;HTU21D;69198;44.694;37.790;2024-01-07T02:05:38;11.87;81.88
75190;HTU21D;69198;44.694;37.790;2024-01-07T02:06:39;11.86;82.02
75190;HTU21D;69198;44.694;37.790;2024-01-07T02:07:40;11.85;82.14
75190;HTU21D;69198;44.694;37.790;2024-01-07T02:08:41;11.85;82.30
75190;HTU21D;69198;44.694;37.790;2024-01-07T02:09:42;11.85;82.34
75190;HTU21D;69198;44.694;37.790;2024-01-07T02:10:43;11.84;82.44
75190;HTU21D;69198;44.694;37.790;2024-01-07T02:12:08;11.85;82.42
75190;HTU21D;69198;44.694;37.790;2024-01-07T02:13:12;11.81;82.59
75190;HTU21D;69198;44.694;37.790;2024-01-07T02:14:13;11.81;82.63
75190;HTU21D;69198;44.694;37.790;2024-01-07T02:15:15;11.79;82.69
75190;HTU21D;69198;44.694;37.790;2024-01-07T02:16:16;11.77;82.76
75190;HTU21D;69198;44.694;37.790;2024-01-07T02:17:18;11.77;82.90
75190;HTU21D;69198;44.694;37.790;2024-01-07T02:18:20;11.78;83.02
75190;HTU21D;69198;44.694;37.790;2024-01-07T02:19:21;11.78;83.04
75190;HTU21D;69198;44.694;37.790;2024-01-07T02:20:23;11.79;83.02
75190;HTU21D;69198;44.694;37.790;2024-01-07T02:21:24;11.79;83.00
75190;HTU21D;69198;44.694;37.790;2024-01-07T02:22:25;11.81;83.00
75190;HTU21D;69198;44.694;37.790;2024-01-07T02:23:26;11.82;83.00
75190;HTU21D;69198;44.694;37.790;2024-01-07T02:24:27;11.82;83.04
75190;HTU21D;69198;44.694;37.790;2024-01-07T02:25:29;11.82;83.02
75190;HTU21D;69198;44.694;37.790;2024-01-07T02:26:30;11.83;82.95
75190;HTU21D;69198;44.694;37.790;2024-01-07T02:27:31;11.82;82.89
75190;HTU21D;69198;44.694;37.790;2024-01-07T02:28:33;11.81;82.83
75190;HTU21D;69198;44.694;37.790;2024-01-07T02:29:34;11.85;82.71
75190;HTU21D;69198;44.694;37.790;2024-01-07T02:30:35;11.85;82.69
75190;HTU21D;69198;44.694;37.790;2024-01-07T02:31:36;11.85;82.75
75190;HTU21D;69198;44.694;37.790;2024-01-07T02:32:37;11.86;82.78
75190;HTU21D;69198;44.694;37.790;2024-01-07T02:33:38;11.87;82.78
75190;HTU21D;69198;44.694;37.790;2024-01-07T02:34:39;11.86;82.81
75190;HTU21D;69198;44.694;37.790;2024-01-07T02:35:41;11.85;82.81
75190;HTU21D;69198;44.694;37.790;2024-01-07T02:36:42;11.87;82.78
75190;HTU21D;69198;44.694;37.790;2024-01-07T02:37:43;11.88;82.78
75190;HTU21D;69198;44.694;37.790;2024-01-07T02:38:44;11.87;82.78
75190;HTU21D;69198;44.694;37.790;2024-01-07T02:39:45;11.86;82.78
75190;HTU21D;69198;44.694;37.790;2024-01-07T02:40:46;11.86;82.75
75190;HTU21D;69198;44.694;37.790;2024-01-07T02:41:48;11.85;82.73
75190;HTU21D;69198;44.694;37.790;2024-01-07T02:42:50;11.87;82.70
75190;HTU21D;69198;44.694;37.790;2024-01-07T02:43:51;11.86;82.71
75190;HTU21D;69198;44.694;37.790;2024-01-07T02:44:52;11.86;82.73
75190;HTU21D;69198;44.694;37.790;2024-01-07T02:45:53;11.86;82.75
75190;HTU21D;69198;44.694;37.790;2024-01-07T02:46:54;11.85;82.81
75190;HTU21D;69198;44.694;37.790;2024-01-07T02:47:56;11.84;82.85
75190;HTU21D;69198;44.694;37.790;2024-01-07T02:48:57;11.87;82.88
75190;HTU21D;69198;44.694;37.790;2024-01-07T02:49:58;11.88;82.82
75190;HTU21D;69198;44.694;37.790;2024-01-07T02:51:00;11.89;82.80
75190;HTU21D;69198;44.694;37.790;2024-01-07T02:52:01;11.87;82.81
75190;HTU21D;69198;44.694;37.790;2024-01-07T02:53:02;11.86;82.84
75190;HTU21D;69198;44.694;37.790;2024-01-07T02:54:03;11.85;82.94
75190;HTU21D;69198;44.694;37.790;2024-01-07T02:55:05;11.84;82.97
75190;HTU21D;69198;44.694;37.790;2024-01-07T02:56:06;11.84;83.00
75190;HTU21D;69198;44.694;37.790;2024-01-07T02:57:09;11.85;82.97
75190;HTU21D;69198;44.694;37.790;2024-01-07T02:58:10;11.82;83.01
75190;HTU21D;69198;44.694;37.790;2024-01-07T02:59:11;11.81;83.09
75190;HTU21D;69198;44.694;37.790;2024-01-07T03:00:12;11.81;83.13
75190;HTU21D;69198;44.694;37.790;2024-01-07T03:01:14;11.79;83.13
75190;HTU21D;69198;44.694;37.790;2024-01-07T03:02:15;11.79;83.13
75190;HTU21D;69198;44.694;37.790;2024-01-07T03:03:16;11.79;83.13
75190;HTU21D;69198;44.694;37.790;2024-01-07T03:04:17;11.77;83.10
75190;HTU21D;69198;44.694;37.790;2024-01-07T03:05:18;11.78;83.12
75190;HTU21D;69198;44.694;37.790;2024-01-07T03:06:19;11.76;83.13
75190;HTU21D;69198;44.694;37.790;2024-01-07T03:07:20;11.76;83.12
75190;HTU21D;69198;44.694;37.790;2024-01-07T03:08:21;11.76;83.10
75190;HTU21D;69198;44.694;37.790;2024-01-07T03:09:22;11.74;83.17
75190;HTU21D;69198;44.694;37.790;2024-01-07T03:10:23;11.74;83.24
75190;HTU21D;69198;44.694;37.790;2024-01-07T03:11:25;11.74;83.26
75190;HTU21D;69198;44.694;37.790;2024-01-07T03:12:26;11.71;83.27
75190;HTU21D;69198;44.694;37.790;2024-01-07T03:13:27;11.70;83.31
75190;HTU21D;69198;44.694;37.790;2024-01-07T03:14:29;11.69;83.38
75190;HTU21D;69198;44.694;37.790;2024-01-07T03:15:30;11.68;83.42
75190;HTU21D;69198;44.694;37.790;2024-01-07T03:16:31;11.68;83.46
75190;HTU21D;69198;44.694;37.790;2024-01-07T03:17:32;11.64;83.52
75190;HTU21D;69198;44.694;37.790;2024-01-07T03:18:33;11.64;83.53
75190;HTU21D;69198;44.694;37.790;2024-01-07T03:19:34;11.64;83.58
75190;HTU21D;69198;44.694;37.790;2024-01-07T03:20:35;11.66;83.65
75190;HTU21D;69198;44.694;37.790;2024-01-07T03:21:36;11.64;83.62
75190;HTU21D;69198;44.694;37.790;2024-01-07T03:22:37;11.66;83.66
75190;HTU21D;69198;44.694;37.790;2024-01-07T03:23:38;11.64;83.65
75190;HTU21D;69198;44.694;37.790;2024-01-07T03:24:41;11.64;83.71
75190;HTU21D;69198;44.694;37.790;2024-01-07T03:25:42;11.63;83.68
75190;HTU21D;69198;44.694;37.790;2024-01-07T03:26:43;11.62;83.73
75190;HTU21D;69198;44.694;37.790;2024-01-07T03:27:44;11.61;83.72
75190;HTU21D;69198;44.694;37.790;2024-01-07T03:28:45;11.60;83.76
75190;HTU21D;69198;44.694;37.790;2024-01-07T03:29:46;11.59;83.85
75190;HTU21D;69198;44.694;37.790;2024-01-07T03:30:47;11.59;83.91
75190;HTU21D;69198;44.694;37.790;2024-01-07T03:31:49;11.60;83.87
75190;HTU21D;69198;44.694;37.790;2024-01-07T03:32:51;11.58;83.84
75190;HTU21D;69198;44.694;37.790;2024-01-07T03:33:52;11.57;83.87
75190;HTU21D;69198;44.694;37.790;2024-01-07T03:34:53;11.56;83.91
75190;HTU21D;69198;44.694;37.790;2024-01-07T03:35:54;11.55;83.97
75190;HTU21D;69198;44.694;37.790;2024-01-07T03:36:55;11.54;84.00
75190;HTU21D;69198;44.694;37.790;2024-01-07T03:37:56;11.55;84.07
75190;HTU21D;69198;44.694;37.790;2024-01-07T03:38:57;11.55;84.15
75190;HTU21D;69198;44.694;37.790;2024-01-07T03:39:59;11.57;84.13
75190;HTU21D;69198;44.694;37.790;2024-01-07T03:41:00;11.58;84.08
75190;HTU21D;69198;44.694;37.790;2024-01-07T03:42:01;11.56;84.11
75190;HTU21D;69198;44.694;37.790;2024-01-07T03:43:02;11.55;84.13
75190;HTU21D;69198;44.694;37.790;2024-01-07T03:44:03;11.56;84.16
75190;HTU21D;69198;44.694;37.790;2024-01-07T03:45:04;11.55;84.09
75190;HTU21D;69198;44.694;37.790;2024-01-07T03:46:06;11.54;84.11
75190;HTU21D;69198;44.694;37.790;2024-01-07T03:47:07;11.52;84.13
75190;HTU21D;69198;44.694;37.790;2024-01-07T03:48:08;11.49;84.21
75190;HTU21D;69198;44.694;37.790;2024-01-07T03:49:09;11.49;84.29
75190;HTU21D;69198;44.694;37.790;2024-01-07T03:50:10;11.51;84.37
75190;HTU21D;69198;44.694;37.790;2024-01-07T03:51:11;11.52;84.41
75190;HTU21D;69198;44.694;37.790;2024-01-07T03:52:12;11.53;84.41
75190;HTU21D;69198;44.694;37.790;2024-01-07T03:53:14;11.53;84.45
75190;HTU21D;69198;44.694;37.790;2024-01-07T03:54:15;11.52;84.45
75190;HTU21D;69198;44.694;37.790;2024-01-07T03:55:16;11.51;84.50
75190;HTU21D;69198;44.694;37.790;2024-01-07T03:56:17;11.49;84.55
75190;HTU21D;69198;44.694;37.790;2024-01-07T03:57:18;11.48;84.63
75190;HTU21D;69198;44.694;37.790;2024-01-07T03:58:19;11.48;84.65
75190;HTU21D;69198;44.694;37.790;2024-01-07T03:59:20;11.51;84.73
75190;HTU21D;69198;44.694;37.790;2024-01-07T04:00:23;11.51;84.77
75190;HTU21D;69198;44.694;37.790;2024-01-07T04:01:24;11.53;84.83
75190;HTU21D;69198;44.694;37.790;2024-01-07T04:02:25;11.53;84.87
75190;HTU21D;69198;44.694;37.790;2024-01-07T04:03:27;11.55;84.90
75190;HTU21D;69198;44.694;37.790;2024-01-07T04:04:28;11.55;84.90
75190;HTU21D;69198;44.694;37.790;2024-01-07T04:05:29;11.54;84.88
75190;HTU21D;69198;44.694;37.790;2024-01-07T04:06:34;11.54;84.96
75190;HTU21D;69198;44.694;37.790;2024-01-07T04:07:34;11.57;84.96
75190;HTU21D;69198;44.694;37.790;2024-01-07T04:08:36;11.60;84.93
75190;HTU21D;69198;44.694;37.790;2024-01-07T04:09:37;11.59;84.90
75190;HTU21D;69198;44.694;37.790;2024-01-07T04:10:38;11.59;84.91
75190;HTU21D;69198;44.694;37.790;2024-01-07T04:11:42;11.59;84.93
75190;HTU21D;69198;44.694;37.790;2024-01-07T04:12:44;11.57;84.94
75190;HTU21D;69198;44.694;37.790;2024-01-07T04:13:45;11.60;84.91
75190;HTU21D;69198;44.694;37.790;2024-01-07T04:14:46;11.60;84.87
75190;HTU21D;69198;44.694;37.790;2024-01-07T04:15:47;11.60;84.78
75190;HTU21D;69198;44.694;37.790;2024-01-07T04:16:48;11.59;84.77
75190;HTU21D;69198;44.694;37.790;2024-01-07T04:17:49;11.58;84.77
75190;HTU21D;69198;44.694;37.790;2024-01-07T04:18:50;11.59;84.77
75190;HTU21D;69198;44.694;37.790;2024-01-07T04:19:52;11.58;84.77
75190;HTU21D;69198;44.694;37.790;2024-01-07T04:20:53;11.57;84.80
75190;HTU21D;69198;44.694;37.790;2024-01-07T04:21:54;11.58;84.82
75190;HTU21D;69198;44.694;37.790;2024-01-07T04:22:55;11.58;84.86
75190;HTU21D;69198;44.694;37.790;2024-01-07T04:23:57;11.58;84.91
75190;HTU21D;69198;44.694;37.790;2024-01-07T04:24:58;11.59;84.89
75190;HTU21D;69198;44.694;37.790;2024-01-07T04:25:59;11.61;84.84
75190;HTU21D;69198;44.694;37.790;2024-01-07T04:27:00;11.62;84.74
75190;HTU21D;69198;44.694;37.790;2024-01-07T04:28:01;11.62;84.70
75190;HTU21D;69198;44.694;37.790;2024-01-07T04:29:02;11.64;84.66
75190;HTU21D;69198;44.694;37.790;2024-01-07T04:30:05;11.66;84.62
75190;HTU21D;69198;44.694;37.790;2024-01-07T04:31:06;11.64;84.63
75190;HTU21D;69198;44.694;37.790;2024-01-07T04:32:07;11.66;84.61
75190;HTU21D;69198;44.694;37.790;2024-01-07T04:33:08;11.66;84.54
75190;HTU21D;69198;44.694;37.790;2024-01-07T04:34:09;11.64;84.53
75190;HTU21D;69198;44.694;37.790;2024-01-07T04:35:11;11.66;84.48
75190;HTU21D;69198;44.694;37.790;2024-01-07T04:36:12;11.66;84.45
75190;HTU21D;69198;44.694;37.790;2024-01-07T04:37:13;11.64;84.35
75190;HTU21D;69198;44.694;37.790;2024-01-07T04:38:14;11.66;84.30
75190;HTU21D;69198;44.694;37.790;2024-01-07T04:39:15;11.64;84.29
75190;HTU21D;69198;44.694;37.790;2024-01-07T04:40:16;11.66;84.26
75190;HTU21D;69198;44.694;37.790;2024-01-07T04:41:17;11.63;84.24
75190;HTU21D;69198;44.694;37.790;2024-01-07T04:42:18;11.66;84.21
75190;HTU21D;69198;44.694;37.790;2024-01-07T04:43:20;11.66;84.13
75190;HTU21D;69198;44.694;37.790;2024-01-07T04:44:21;11.69;84.02
75190;HTU21D;69198;44.694;37.790;2024-01-07T04:45:22;11.71;83.87
75190;HTU21D;69198;44.694;37.790;2024-01-07T04:46:23;11.72;83.74
75190;HTU21D;69198;44.694;37.790;2024-01-07T04:47:31;11.71;83.74
75190;HTU21D;69198;44.694;37.790;2024-01-07T04:48:32;11.70;83.81
75190;HTU21D;69198;44.694;37.790;2024-01-07T04:49:33;11.68;83.80
75190;HTU21D;69198;44.694;37.790;2024-01-07T04:50:34;11.66;83.83
75190;HTU21D;69198;44.694;37.790;2024-01-07T04:51:35;11.67;83.87
75190;HTU21D;69198;44.694;37.790;2024-01-07T04:52:39;11.66;83.93
75190;HTU21D;69198;44.694;37.790;2024-01-07T04:53:40;11.64;83.94
75190;HTU21D;69198;44.694;37.790;2024-01-07T04:54:41;11.62;83.95
75190;HTU21D;69198;44.694;37.790;2024-01-07T04:55:42;11.61;83.97
75190;HTU21D;69198;44.694;37.790;2024-01-07T04:56:43;11.60;84.00
75190;HTU21D;69198;44.694;37.790;2024-01-07T04:57:44;11.61;84.03
75190;HTU21D;69198;44.694;37.790;2024-01-07T04:58:45;11.63;83.99
75190;HTU21D;69198;44.694;37.790;2024-01-07T04:59:47;11.63;83.88
75190;HTU21D;69198;44.694;37.790;2024-01-07T05:00:49;11.61;83.84
75190;HTU21D;69198;44.694;37.790;2024-01-07T05:01:50;11.62;83.89
75190;HTU21D;69198;44.694;37.790;2024-01-07T05:02:51;11.62;83.89
75190;HTU21D;69198;44.694;37.790;2024-01-07T05:03:52;11.63;83.84
75190;HTU21D;69198;44.694;37.790;2024-01-07T05:04:53;11.64;83.75
75190;HTU21D;69198;44.694;37.790;2024-01-07T05:05:54;11.63;83.71
75190;HTU21D;69198;44.694;37.790;2024-01-07T05:06:55;11.67;83.64
75190;HTU21D;69198;44.694;37.790;2024-01-07T05:07:56;11.67;83.57
75190;HTU21D;69198;44.694;37.790;2024-01-07T05:08:59;11.67;83.52
75190;HTU21D;69198;44.694;37.790;2024-01-07T05:10:00;11.68;83.50
75190;HTU21D;69198;44.694;37.790;2024-01-07T05:11:02;11.67;83.49
75190;HTU21D;69198;44.694;37.790;2024-01-07T05:12:03;11.67;83.48
75190;HTU21D;69198;44.694;37.790;2024-01-07T05:13:04;11.67;83.42
75190;HTU21D;69198;44.694;37.790;2024-01-07T05:14:07;11.67;83.44
75190;HTU21D;69198;44.694;37.790;2024-01-07T05:15:08;11.66;83.41
75190;HTU21D;69198;44.694;37.790;2024-01-07T05:16:18;11.71;83.29
75190;HTU21D;69198;44.694;37.790;2024-01-07T05:17:20;11.71;83.26
75190;HTU21D;69198;44.694;37.790;2024-01-07T05:18:22;11.74;83.16
75190;HTU21D;69198;44.694;37.790;2024-01-07T05:19:23;11.74;83.08
75190;HTU21D;69198;44.694;37.790;2024-01-07T05:20:24;11.75;83.07
75190;HTU21D;69198;44.694;37.790;2024-01-07T05:21:25;11.77;83.03
75190;HTU21D;69198;44.694;37.790;2024-01-07T05:22:27;11.82;83.04
75190;HTU21D;69198;44.694;37.790;2024-01-07T05:23:28;11.91;83.00
75190;HTU21D;69198;44.694;37.790;2024-01-07T05:24:29;12.03;82.86
75190;HTU21D;69198;44.694;37.790;2024-01-07T05:25:30;12.17;82.68
75190;HTU21D;69198;44.694;37.790;2024-01-07T05:26:30;12.33;82.41
75190;HTU21D;69198;44.694;37.790;2024-01-07T05:27:32;12.48;82.02
75190;HTU21D;69198;44.694;37.790;2024-01-07T05:28:33;12.64;81.58
75190;HTU21D;69198;44.694;37.790;2024-01-07T05:29:34;12.79;81.17
75190;HTU21D;69198;44.694;37.790;2024-01-07T05:30:35;12.90;80.60
75190;HTU21D;69198;44.694;37.790;2024-01-07T05:31:36;12.89;80.09
75190;HTU21D;69198;44.694;37.790;2024-01-07T05:32:37;12.82;80.07
75190;HTU21D;69198;44.694;37.790;2024-01-07T05:33:38;12.71;80.24
75190;HTU21D;69198;44.694;37.790;2024-01-07T05:34:39;12.62;80.46
75190;HTU21D;69198;44.694;37.790;2024-01-07T05:35:40;12.60;80.65
75190;HTU21D;69198;44.694;37.790;2024-01-07T05:36:41;12.58;80.65
75190;HTU21D;69198;44.694;37.790;2024-01-07T05:37:42;12.56;80.72
75190;HTU21D;69198;44.694;37.790;2024-01-07T05:38:43;12.53;80.71
75190;HTU21D;69198;44.694;37.790;2024-01-07T05:39:44;12.50;80.72
75190;HTU21D;69198;44.694;37.790;2024-01-07T05:40:45;12.51;80.88
75190;HTU21D;69198;44.694;37.790;2024-01-07T05:41:46;12.66;80.98
75190;HTU21D;69198;44.694;37.790;2024-01-07T05:42:47;12.92;80.81
75190;HTU21D;69198;44.694;37.790;2024-01-07T05:43:48;13.22;80.31
75190;HTU21D;69198;44.694;37.790;2024-01-07T05:44:50;13.49;79.62
75190;HTU21D;69198;44.694;37.790;2024-01-07T05:45:51;13.79;79.16
75190;HTU21D;69198;44.694;37.790;2024-01-07T05:46:52;14.10;78.57
75190;HTU21D;69198;44.694;37.790;2024-01-07T05:47:53;14.39;77.54
75190;HTU21D;69198;44.694;37.790;2024-01-07T05:48:54;14.56;76.66
75190;HTU21D;69198;44.694;37.790;2024-01-07T05:49:56;14.77;76.21
75190;HTU21D;69198;44.694;37.790;2024-01-07T05:50:57;14.93;75.66
75190;HTU21D;69198;44.694;37.790;2024-01-07T05:51:58;15.09;75.52
75190;HTU21D;69198;44.694;37.790;2024-01-07T05:53:00;15.26;75.21
75190;HTU21D;69198;44.694;37.790;2024-01-07T05:54:01;15.43;74.55
75190;HTU21D;69198;44.694;37.790;2024-01-07T05:55:02;15.56;73.90
75190;HTU21D;69198;44.694;37.790;2024-01-07T05:56:03;15.70;73.69
75190;HTU21D;69198;44.694;37.790;2024-01-07T05:57:04;15.84;73.30
75190;HTU21D;69198;44.694;37.790;2024-01-07T05:58:06;15.95;72.66
75190;HTU21D;69198;44.694;37.790;2024-01-07T05:59:07;16.06;72.35
75190;HTU21D;69198;44.694;37.790;2024-01-07T06:00:09;16.17;71.95
75190;HTU21D;69198;44.694;37.790;2024-01-07T06:01:23;16.27;70.77
75190;HTU21D;69198;44.694;37.790;2024-01-07T06:02:24;16.31;70.52
75190;HTU21D;69198;44.694;37.790;2024-01-07T06:03:26;16.32;69.68
75190;HTU21D;69198;44.694;37.790;2024-01-07T06:04:27;16.31;69.44
75190;HTU21D;69198;44.694;37.790;2024-01-07T06:05:29;16.30;69.20
75190;HTU21D;69198;44.694;37.790;2024-01-07T06:06:30;16.34;68.90
75190;HTU21D;69198;44.694;37.790;2024-01-07T06:07:34;16.37;68.66
75190;HTU21D;69198;44.694;37.790;2024-01-07T06:08:35;16.44;68.63
75190;HTU21D;69198;44.694;37.790;2024-01-07T06:09:36;16.54;68.30
75190;HTU21D;69198;44.694;37.790;2024-01-07T06:10:37;16.60;67.64
75190;HTU21D;69198;44.694;37.790;2024-01-07T06:11:38;16.63;67.54
75190;HTU21D;69198;44.694;37.790;2024-01-07T06:12:39;16.70;67.27
75190;HTU21D;69198;44.694;37.790;2024-01-07T06:13:40;16.72;66.99
75190;HTU21D;69198;44.694;37.790;2024-01-07T06:14:41;16.77;66.73
75190;HTU21D;69198;44.694;37.790;2024-01-07T06:15:42;16.84;66.59
75190;HTU21D;69198;44.694;37.790;2024-01-07T06:16:43;16.89;66.27